sensor_id;sensor_type;location;lat;lon;timestamp;P1;durP1;ratioP1;P2;durP2;ratioP2
70049;SDS011;57391;51.306;22.680;2023-09-30T00:02:26;29.70;;;17.90;;
70049;SDS011;57391;51.306;22.680;2023-09-30T00:04:54;31.20;;;18.00;;
70049;SDS011;57391;51.306;22.680;2023-09-30T00:07:20;32.50;;;18.90;;
70049;SDS011;57391;51.306;22.680;2023-09-30T00:09:48;30.50;;;18.30;;
70049;SDS011;57391;51.306;22.680;2023-09-30T00:12:15;33.60;;;18.00;;
70049;SDS011;57391;51.306;22.680;2023-09-30T00:14:42;25.30;;;16.60;;
70049;SDS011;57391;51.306;22.680;2023-09-30T00:17:09;28.30;;;17.80;;
70049;SDS011;57391;51.306;22.680;2023-09-30T00:19:36;27.50;;;17.20;;
70049;SDS011;57391;51.306;22.680;2023-09-30T00:22:03;26.60;;;17.50;;
70049;SDS011;57391;51.306;22.680;2023-09-30T00:24:30;25.40;;;16.50;;
70049;SDS011;57391;51.306;22.680;2023-09-30T00:26:57;29.00;;;18.10;;
70049;SDS011;57391;51.306;22.680;2023-09-30T00:29:24;32.40;;;18.10;;
70049;SDS011;57391;51.306;22.680;2023-09-30T00:31:51;32.80;;;19.90;;
70049;SDS011;57391;51.306;22.680;2023-09-30T00:34:17;31.20;;;19.60;;
70049;SDS011;57391;51.306;22.680;2023-09-30T00:36:44;30.70;;;19.10;;
70049;SDS011;57391;51.306;22.680;2023-09-30T00:39:12;29.90;;;18.60;;
70049;SDS011;57391;51.306;22.680;2023-09-30T00:41:39;29.60;;;18.50;;
70049;SDS011;57391;51.306;22.680;2023-09-30T00:44:07;32.10;;;19.50;;
70049;SDS011;57391;51.306;22.680;2023-09-30T00:46:37;30.40;;;18.50;;
70049;SDS011;57391;51.306;22.680;2023-09-30T00:49:07;32.80;;;19.20;;
70049;SDS011;57391;51.306;22.680;2023-09-30T00:51:36;30.70;;;19.60;;
70049;SDS011;57391;51.306;22.680;2023-09-30T00:54:05;29.70;;;19.00;;
70049;SDS011;57391;51.306;22.680;2023-09-30T00:56:32;29.60;;;18.50;;
70049;SDS011;57391;51.306;22.680;2023-09-30T00:59:00;28.30;;;18.80;;
70049;SDS011;57391;51.306;22.680;2023-09-30T01:01:27;28.70;;;16.80;;
70049;SDS011;57391;51.306;22.680;2023-09-30T01:03:55;30.70;;;18.50;;
70049;SDS011;57391;51.306;22.680;2023-09-30T01:06:22;28.20;;;17.00;;
70049;SDS011;57391;51.306;22.680;2023-09-30T01:08:49;29.10;;;18.80;;
70049;SDS011;57391;51.306;22.680;2023-09-30T01:11:16;30.40;;;17.20;;
70049;SDS011;57391;51.306;22.680;2023-09-30T01:13:43;26.50;;;16.90;;
70049;SDS011;57391;51.306;22.680;2023-09-30T01:16:11;25.90;;;16.30;;
70049;SDS011;57391;51.306;22.680;2023-09-30T01:18:39;24.40;;;15.90;;
70049;SDS011;57391;51.306;22.680;2023-09-30T01:21:09;24.20;;;15.90;;
70049;SDS011;57391;51.306;22.680;2023-09-30T01:23:37;22.80;;;16.20;;
70049;SDS011;57391;51.306;22.680;2023-09-30T01:26:12;25.90;;;15.60;;
70049;SDS011;57391;51.306;22.680;2023-09-30T01:28:40;26.30;;;16.40;;
70049;SDS011;57391;51.306;22.680;2023-09-30T01:31:07;28.30;;;16.20;;
70049;SDS011;57391;51.306;22.680;2023-09-30T01:33:35;26.30;;;16.30;;
70049;SDS011;57391;51.306;22.680;2023-09-30T01:36:03;28.00;;;16.90;;
70049;SDS011;57391;51.306;22.680;2023-09-30T01:38:30;25.00;;;16.30;;
70049;SDS011;57391;51.306;22.680;2023-09-30T01:40:57;26.60;;;16.50;;
70049;SDS011;57391;51.306;22.680;2023-09-30T01:43:24;25.30;;;16.10;;
70049;SDS011;57391;51.306;22.680;2023-09-30T01:45:52;28.30;;;16.30;;
70049;SDS011;57391;51.306;22.680;2023-09-30T01:48:19;25.00;;;16.40;;
70049;SDS011;57391;51.306;22.680;2023-09-30T01:50:46;25.60;;;16.00;;
70049;SDS011;57391;51.306;22.680;2023-09-30T01:53:14;24.20;;;15.90;;
70049;SDS011;57391;51.306;22.680;2023-09-30T01:55:41;23.70;;;15.10;;
70049;SDS011;57391;51.306;22.680;2023-09-30T01:58:09;22.60;;;14.60;;
70049;SDS011;57391;51.306;22.680;2023-09-30T02:00:38;24.60;;;14.90;;
70049;SDS011;57391;51.306;22.680;2023-09-30T02:03:05;22.70;;;14.90;;
70049;SDS011;57391;51.306;22.680;2023-09-30T02:05:32;23.80;;;14.40;;
70049;SDS011;57391;51.306;22.680;2023-09-30T02:07:59;22.20;;;14.00;;
70049;SDS011;57391;51.306;22.680;2023-09-30T02:10:26;22.50;;;14.10;;
70049;SDS011;57391;51.306;22.680;2023-09-30T02:12:53;21.70;;;13.90;;
70049;SDS011;57391;51.306;22.680;2023-09-30T02:15:20;24.60;;;13.70;;
70049;SDS011;57391;51.306;22.680;2023-09-30T02:17:47;21.80;;;13.90;;
70049;SDS011;57391;51.306;22.680;2023-09-30T02:20:15;22.40;;;13.80;;
70049;SDS011;57391;51.306;22.680;2023-09-30T02:22:45;20.20;;;14.20;;
70049;SDS011;57391;51.306;22.680;2023-09-30T02:25:13;21.70;;;13.60;;
70049;SDS011;57391;51.306;22.680;2023-09-30T02:27:40;22.60;;;14.90;;
70049;SDS011;57391;51.306;22.680;2023-09-30T02:30:09;22.20;;;14.40;;
70049;SDS011;57391;51.306;22.680;2023-09-30T02:32:39;24.50;;;14.90;;
70049;SDS011;57391;51.306;22.680;2023-09-30T02:35:07;22.10;;;14.60;;
70049;SDS011;57391;51.306;22.680;2023-09-30T02:37:37;25.10;;;15.40;;
70049;SDS011;57391;51.306;22.680;2023-09-30T02:40:06;22.10;;;14.40;;
70049;SDS011;57391;51.306;22.680;2023-09-30T02:42:38;23.90;;;14.30;;
70049;SDS011;57391;51.306;22.680;2023-09-30T02:45:06;21.20;;;13.90;;
70049;SDS011;57391;51.306;22.680;2023-09-30T02:47:35;20.40;;;13.30;;
70049;SDS011;57391;51.306;22.680;2023-09-30T02:50:04;23.00;;;13.80;;
70049;SDS011;57391;51.306;22.680;2023-09-30T02:52:32;21.40;;;13.60;;
70049;SDS011;57391;51.306;22.680;2023-09-30T02:54:59;21.20;;;13.70;;
70049;SDS011;57391;51.306;22.680;2023-09-30T02:57:26;20.70;;;13.00;;
70049;SDS011;57391;51.306;22.680;2023-09-30T02:59:56;22.60;;;14.20;;
70049;SDS011;57391;51.306;22.680;2023-09-30T03:02:23;23.30;;;13.50;;
70049;SDS011;57391;51.306;22.680;2023-09-30T03:04:50;22.00;;;13.70;;
70049;SDS011;57391;51.306;22.680;2023-09-30T03:07:19;22.50;;;14.40;;
70049;SDS011;57391;51.306;22.680;2023-09-30T03:09:46;22.70;;;14.30;;
70049;SDS011;57391;51.306;22.680;2023-09-30T03:12:13;24.20;;;14.20;;
70049;SDS011;57391;51.306;22.680;2023-09-30T03:14:40;24.90;;;14.60;;
70049;SDS011;57391;51.306;22.680;2023-09-30T03:17:07;22.10;;;14.30;;
70049;SDS011;57391;51.306;22.680;2023-09-30T03:19:38;21.40;;;13.70;;
70049;SDS011;57391;51.306;22.680;2023-09-30T03:22:05;20.40;;;13.50;;
70049;SDS011;57391;51.306;22.680;2023-09-30T03:24:38;20.60;;;13.70;;
70049;SDS011;57391;51.306;22.680;2023-09-30T03:27:06;19.30;;;12.80;;
70049;SDS011;57391;51.306;22.680;2023-09-30T03:29:36;20.40;;;13.30;;
70049;SDS011;57391;51.306;22.680;2023-09-30T03:32:04;23.60;;;13.80;;
70049;SDS011;57391;51.306;22.680;2023-09-30T03:34:31;20.60;;;13.10;;
70049;SDS011;57391;51.306;22.680;2023-09-30T03:36:58;19.90;;;13.20;;
70049;SDS011;57391;51.306;22.680;2023-09-30T03:39:27;20.50;;;13.60;;
70049;SDS011;57391;51.306;22.680;2023-09-30T03:41:57;20.90;;;13.20;;
70049;SDS011;57391;51.306;22.680;2023-09-30T03:44:24;22.10;;;12.70;;
70049;SDS011;57391;51.306;22.680;2023-09-30T03:46:51;20.70;;;12.80;;
70049;SDS011;57391;51.306;22.680;2023-09-30T03:49:19;20.00;;;13.10;;
70049;SDS011;57391;51.306;22.680;2023-09-30T03:51:48;20.10;;;13.20;;
70049;SDS011;57391;51.306;22.680;2023-09-30T03:54:17;21.20;;;13.10;;
70049;SDS011;57391;51.306;22.680;2023-09-30T03:56:47;21.80;;;13.70;;
70049;SDS011;57391;51.306;22.680;2023-09-30T03:59:14;21.60;;;13.70;;
70049;SDS011;57391;51.306;22.680;2023-09-30T04:01:41;21.80;;;13.40;;
70049;SDS011;57391;51.306;22.680;2023-09-30T04:04:09;23.30;;;14.60;;
70049;SDS011;57391;51.306;22.680;2023-09-30T04:06:36;20.90;;;13.90;;
70049;SDS011;57391;51.306;22.680;2023-09-30T04:09:05;21.30;;;13.10;;
70049;SDS011;57391;51.306;22.680;2023-09-30T04:11:38;22.00;;;14.50;;
70049;SDS011;57391;51.306;22.680;2023-09-30T04:14:06;22.30;;;13.00;;
70049;SDS011;57391;51.306;22.680;2023-09-30T04:16:35;20.90;;;13.30;;
70049;SDS011;57391;51.306;22.680;2023-09-30T04:19:03;22.40;;;13.80;;
70049;SDS011;57391;51.306;22.680;2023-09-30T04:21:31;20.40;;;13.70;;
70049;SDS011;57391;51.306;22.680;2023-09-30T04:24:00;27.40;;;13.50;;
70049;SDS011;57391;51.306;22.680;2023-09-30T04:26:27;21.50;;;13.40;;
70049;SDS011;57391;51.306;22.680;2023-09-30T04:28:54;23.70;;;14.10;;
70049;SDS011;57391;51.306;22.680;2023-09-30T04:31:21;23.00;;;14.00;;
70049;SDS011;57391;51.306;22.680;2023-09-30T04:33:49;19.90;;;13.00;;
70049;SDS011;57391;51.306;22.680;2023-09-30T04:36:17;23.50;;;14.70;;
70049;SDS011;57391;51.306;22.680;2023-09-30T04:38:44;21.40;;;13.80;;
70049;SDS011;57391;51.306;22.680;2023-09-30T04:41:12;22.80;;;14.40;;
70049;SDS011;57391;51.306;22.680;2023-09-30T04:43:39;22.20;;;14.00;;
70049;SDS011;57391;51.306;22.680;2023-09-30T04:46:06;23.00;;;14.20;;
70049;SDS011;57391;51.306;22.680;2023-09-30T04:48:39;22.50;;;13.10;;
70049;SDS011;57391;51.306;22.680;2023-09-30T04:51:07;23.10;;;13.20;;
70049;SDS011;57391;51.306;22.680;2023-09-30T04:53:35;23.20;;;14.30;;
70049;SDS011;57391;51.306;22.680;2023-09-30T04:56:02;21.10;;;14.30;;
70049;SDS011;57391;51.306;22.680;2023-09-30T04:58:30;23.80;;;14.20;;
70049;SDS011;57391;51.306;22.680;2023-09-30T05:00:57;23.00;;;13.80;;
70049;SDS011;57391;51.306;22.680;2023-09-30T05:03:25;22.50;;;14.20;;
70049;SDS011;57391;51.306;22.680;2023-09-30T05:05:52;20.40;;;13.10;;
70049;SDS011;57391;51.306;22.680;2023-09-30T05:08:25;22.20;;;14.30;;
70049;SDS011;57391;51.306;22.680;2023-09-30T05:10:52;21.80;;;13.70;;
70049;SDS011;57391;51.306;22.680;2023-09-30T05:13:22;22.40;;;13.10;;
70049;SDS011;57391;51.306;22.680;2023-09-30T05:15:50;20.70;;;13.40;;
70049;SDS011;57391;51.306;22.680;2023-09-30T05:18:18;21.70;;;14.40;;
70049;SDS011;57391;51.306;22.680;2023-09-30T05:20:44;19.80;;;13.00;;
70049;SDS011;57391;51.306;22.680;2023-09-30T05:23:11;22.60;;;14.00;;
70049;SDS011;57391;51.306;22.680;2023-09-30T05:25:41;20.60;;;13.60;;
70049;SDS011;57391;51.306;22.680;2023-09-30T05:28:09;20.80;;;13.50;;
70049;SDS011;57391;51.306;22.680;2023-09-30T05:30:37;25.10;;;13.60;;
70049;SDS011;57391;51.306;22.680;2023-09-30T05:33:05;25.20;;;13.80;;
70049;SDS011;57391;51.306;22.680;2023-09-30T05:35:33;25.00;;;13.70;;
70049;SDS011;57391;51.306;22.680;2023-09-30T05:38:00;20.20;;;13.80;;
70049;SDS011;57391;51.306;22.680;2023-09-30T05:40:27;21.70;;;13.80;;
70049;SDS011;57391;51.306;22.680;2023-09-30T05:42:57;24.00;;;14.10;;
70049;SDS011;57391;51.306;22.680;2023-09-30T05:45:30;21.20;;;13.50;;
70049;SDS011;57391;51.306;22.680;2023-09-30T05:48:03;20.50;;;13.10;;
70049;SDS011;57391;51.306;22.680;2023-09-30T05:50:33;20.90;;;13.80;;
70049;SDS011;57391;51.306;22.680;2023-09-30T05:53:03;22.70;;;13.30;;
70049;SDS011;57391;51.306;22.680;2023-09-30T05:55:31;24.30;;;14.30;;
70049;SDS011;57391;51.306;22.680;2023-09-30T05:57:58;23.50;;;14.50;;
70049;SDS011;57391;51.306;22.680;2023-09-30T06:00:27;22.40;;;14.20;;
70049;SDS011;57391;51.306;22.680;2023-09-30T06:02:57;20.00;;;13.80;;
70049;SDS011;57391;51.306;22.680;2023-09-30T06:05:24;22.40;;;14.20;;
70049;SDS011;57391;51.306;22.680;2023-09-30T06:07:57;24.10;;;15.10;;
70049;SDS011;57391;51.306;22.680;2023-09-30T06:10:25;21.40;;;13.90;;
70049;SDS011;57391;51.306;22.680;2023-09-30T06:12:53;21.90;;;14.00;;
70049;SDS011;57391;51.306;22.680;2023-09-30T06:15:24;20.80;;;13.10;;
70049;SDS011;57391;51.306;22.680;2023-09-30T06:17:56;22.80;;;13.50;;
70049;SDS011;57391;51.306;22.680;2023-09-30T06:20:24;21.20;;;13.20;;
70049;SDS011;57391;51.306;22.680;2023-09-30T06:22:52;22.40;;;13.80;;
70049;SDS011;57391;51.306;22.680;2023-09-30T06:25:22;21.30;;;13.70;;
70049;SDS011;57391;51.306;22.680;2023-09-30T06:27:52;23.40;;;13.70;;
70049;SDS011;57391;51.306;22.680;2023-09-30T06:30:21;25.80;;;14.20;;
70049;SDS011;57391;51.306;22.680;2023-09-30T06:32:51;22.10;;;14.50;;
70049;SDS011;57391;51.306;22.680;2023-09-30T06:35:20;25.30;;;14.10;;
70049;SDS011;57391;51.306;22.680;2023-09-30T06:37:46;24.60;;;15.40;;
70049;SDS011;57391;51.306;22.680;2023-09-30T06:40:14;24.70;;;14.80;;
70049;SDS011;57391;51.306;22.680;2023-09-30T06:42:40;24.20;;;14.40;;
70049;SDS011;57391;51.306;22.680;2023-09-30T06:45:09;24.50;;;14.60;;
70049;SDS011;57391;51.306;22.680;2023-09-30T06:47:37;26.30;;;14.70;;
70049;SDS011;57391;51.306;22.680;2023-09-30T06:50:08;25.20;;;14.30;;
70049;SDS011;57391;51.306;22.680;2023-09-30T06:52:40;23.50;;;14.10;;
70049;SDS011;57391;51.306;22.680;2023-09-30T06:55:08;23.80;;;13.00;;
70049;SDS011;57391;51.306;22.680;2023-09-30T06:57:37;21.60;;;13.30;;
70049;SDS011;57391;51.306;22.680;2023-09-30T07:00:09;19.70;;;13.60;;
70049;SDS011;57391;51.306;22.680;2023-09-30T07:02:38;23.10;;;13.90;;
70049;SDS011;57391;51.306;22.680;2023-09-30T07:05:14;20.40;;;12.80;;
70049;SDS011;57391;51.306;22.680;2023-09-30T07:07:41;23.80;;;13.40;;
70049;SDS011;57391;51.306;22.680;2023-09-30T07:10:12;21.60;;;13.10;;
70049;SDS011;57391;51.306;22.680;2023-09-30T07:12:39;19.40;;;12.60;;
70049;SDS011;57391;51.306;22.680;2023-09-30T07:15:07;21.90;;;12.30;;
70049;SDS011;57391;51.306;22.680;2023-09-30T07:17:35;20.00;;;12.80;;
70049;SDS011;57391;51.306;22.680;2023-09-30T07:20:04;20.50;;;13.70;;
70049;SDS011;57391;51.306;22.680;2023-09-30T07:22:32;20.30;;;13.50;;
70049;SDS011;57391;51.306;22.680;2023-09-30T07:25:00;22.40;;;12.70;;
70049;SDS011;57391;51.306;22.680;2023-09-30T07:27:27;19.80;;;12.70;;
70049;SDS011;57391;51.306;22.680;2023-09-30T07:29:53;20.60;;;12.70;;
70049;SDS011;57391;51.306;22.680;2023-09-30T07:32:20;19.20;;;12.70;;
70049;SDS011;57391;51.306;22.680;2023-09-30T07:34:50;20.50;;;11.60;;
70049;SDS011;57391;51.306;22.680;2023-09-30T07:37:18;17.60;;;12.30;;
70049;SDS011;57391;51.306;22.680;2023-09-30T07:39:46;17.60;;;11.70;;
70049;SDS011;57391;51.306;22.680;2023-09-30T07:42:13;18.80;;;12.00;;
70049;SDS011;57391;51.306;22.680;2023-09-30T07:44:41;23.90;;;11.60;;
70049;SDS011;57391;51.306;22.680;2023-09-30T07:47:08;18.90;;;11.50;;
70049;SDS011;57391;51.306;22.680;2023-09-30T07:49:38;18.90;;;12.00;;
70049;SDS011;57391;51.306;22.680;2023-09-30T07:52:05;19.30;;;12.20;;
70049;SDS011;57391;51.306;22.680;2023-09-30T07:54:32;17.50;;;11.40;;
70049;SDS011;57391;51.306;22.680;2023-09-30T07:56:59;17.30;;;11.60;;
70049;SDS011;57391;51.306;22.680;2023-09-30T07:59:26;16.70;;;10.80;;
70049;SDS011;57391;51.306;22.680;2023-09-30T08:01:54;19.90;;;11.60;;
70049;SDS011;57391;51.306;22.680;2023-09-30T08:04:21;26.90;;;14.90;;
70049;SDS011;57391;51.306;22.680;2023-09-30T08:06:49;24.10;;;13.50;;
70049;SDS011;57391;51.306;22.680;2023-09-30T08:09:17;18.30;;;12.30;;
70049;SDS011;57391;51.306;22.680;2023-09-30T08:11:45;19.00;;;11.60;;
70049;SDS011;57391;51.306;22.680;2023-09-30T08:14:11;23.20;;;12.00;;
70049;SDS011;57391;51.306;22.680;2023-09-30T08:16:38;17.40;;;10.70;;
70049;SDS011;57391;51.306;22.680;2023-09-30T08:19:05;17.70;;;10.90;;
70049;SDS011;57391;51.306;22.680;2023-09-30T08:21:33;21.20;;;11.80;;
70049;SDS011;57391;51.306;22.680;2023-09-30T08:24:02;17.80;;;10.70;;
70049;SDS011;57391;51.306;22.680;2023-09-30T08:26:29;18.90;;;11.50;;
70049;SDS011;57391;51.306;22.680;2023-09-30T08:28:56;23.70;;;13.20;;
70049;SDS011;57391;51.306;22.680;2023-09-30T08:31:23;18.80;;;11.70;;
70049;SDS011;57391;51.306;22.680;2023-09-30T08:33:50;19.50;;;10.00;;
70049;SDS011;57391;51.306;22.680;2023-09-30T08:36:17;15.90;;;10.70;;
70049;SDS011;57391;51.306;22.680;2023-09-30T08:38:45;17.90;;;9.90;;
70049;SDS011;57391;51.306;22.680;2023-09-30T08:41:24;19.20;;;9.30;;
70049;SDS011;57391;51.306;22.680;2023-09-30T08:44:03;17.30;;;10.60;;
70049;SDS011;57391;51.306;22.680;2023-09-30T08:46:33;17.10;;;9.50;;
70049;SDS011;57391;51.306;22.680;2023-09-30T08:49:05;15.70;;;9.90;;
70049;SDS011;57391;51.306;22.680;2023-09-30T08:51:35;16.20;;;10.00;;
70049;SDS011;57391;51.306;22.680;2023-09-30T08:54:02;14.80;;;9.10;;
70049;SDS011;57391;51.306;22.680;2023-09-30T08:56:31;14.30;;;9.40;;
70049;SDS011;57391;51.306;22.680;2023-09-30T08:59:03;15.70;;;9.30;;
70049;SDS011;57391;51.306;22.680;2023-09-30T09:01:30;17.40;;;9.30;;
70049;SDS011;57391;51.306;22.680;2023-09-30T09:03:58;14.30;;;9.70;;
70049;SDS011;57391;51.306;22.680;2023-09-30T09:06:25;14.10;;;8.80;;
70049;SDS011;57391;51.306;22.680;2023-09-30T09:08:53;14.20;;;10.20;;
70049;SDS011;57391;51.306;22.680;2023-09-30T09:11:20;17.10;;;10.40;;
70049;SDS011;57391;51.306;22.680;2023-09-30T09:13:54;14.60;;;10.10;;
70049;SDS011;57391;51.306;22.680;2023-09-30T09:16:24;17.90;;;10.00;;
70049;SDS011;57391;51.306;22.680;2023-09-30T09:18:51;16.40;;;9.40;;
70049;SDS011;57391;51.306;22.680;2023-09-30T09:21:20;15.10;;;9.50;;
70049;SDS011;57391;51.306;22.680;2023-09-30T09:23:51;16.90;;;9.80;;
70049;SDS011;57391;51.306;22.680;2023-09-30T09:26:31;15.70;;;9.80;;
70049;SDS011;57391;51.306;22.680;2023-09-30T09:29:02;14.50;;;8.70;;
70049;SDS011;57391;51.306;22.680;2023-09-30T09:31:35;18.60;;;9.40;;
70049;SDS011;57391;51.306;22.680;2023-09-30T09:34:03;13.20;;;9.30;;
70049;SDS011;57391;51.306;22.680;2023-09-30T09:36:43;14.40;;;9.30;;
70049;SDS011;57391;51.306;22.680;2023-09-30T09:39:12;15.30;;;10.00;;
70049;SDS011;57391;51.306;22.680;2023-09-30T09:41:50;15.40;;;9.80;;
70049;SDS011;57391;51.306;22.680;2023-09-30T09:44:21;17.00;;;10.00;;
70049;SDS011;57391;51.306;22.680;2023-09-30T09:46:49;15.50;;;10.00;;
70049;SDS011;57391;51.306;22.680;2023-09-30T09:49:18;16.70;;;11.10;;
70049;SDS011;57391;51.306;22.680;2023-09-30T09:51:46;19.00;;;11.30;;
70049;SDS011;57391;51.306;22.680;2023-09-30T09:54:15;17.80;;;10.60;;
70049;SDS011;57391;51.306;22.680;2023-09-30T09:56:46;18.60;;;11.30;;
70049;SDS011;57391;51.306;22.680;2023-09-30T09:59:14;20.60;;;11.30;;
70049;SDS011;57391;51.306;22.680;2023-09-30T10:01:41;16.70;;;10.80;;
70049;SDS011;57391;51.306;22.680;2023-09-30T10:04:10;18.00;;;10.80;;
70049;SDS011;57391;51.306;22.680;2023-09-30T10:06:38;16.90;;;10.90;;
70049;SDS011;57391;51.306;22.680;2023-09-30T10:09:10;16.40;;;11.10;;
70049;SDS011;57391;51.306;22.680;2023-09-30T10:11:38;15.60;;;10.80;;
70049;SDS011;57391;51.306;22.680;2023-09-30T10:14:09;18.20;;;12.70;;
70049;SDS011;57391;51.306;22.680;2023-09-30T10:16:56;17.70;;;11.70;;
70049;SDS011;57391;51.306;22.680;2023-09-30T10:19:23;20.50;;;12.30;;
70049;SDS011;57391;51.306;22.680;2023-09-30T10:24:55;17.80;;;11.60;;
70049;SDS011;57391;51.306;22.680;2023-09-30T10:35:17;18.70;;;10.80;;
70049;SDS011;57391;51.306;22.680;2023-09-30T10:37:45;14.50;;;10.30;;
70049;SDS011;57391;51.306;22.680;2023-09-30T10:40:28;15.00;;;9.30;;
70049;SDS011;57391;51.306;22.680;2023-09-30T10:42:56;18.10;;;10.70;;
70049;SDS011;57391;51.306;22.680;2023-09-30T10:45:43;14.40;;;9.50;;
70049;SDS011;57391;51.306;22.680;2023-09-30T10:51:16;14.60;;;9.60;;
70049;SDS011;57391;51.306;22.680;2023-09-30T10:53:54;14.40;;;8.40;;
70049;SDS011;57391;51.306;22.680;2023-09-30T10:56:33;15.70;;;9.00;;
70049;SDS011;57391;51.306;22.680;2023-09-30T10:59:00;14.70;;;9.00;;
70049;SDS011;57391;51.306;22.680;2023-09-30T11:01:33;14.50;;;8.70;;
70049;SDS011;57391;51.306;22.680;2023-09-30T11:04:03;14.30;;;9.20;;
70049;SDS011;57391;51.306;22.680;2023-09-30T11:06:31;14.40;;;9.60;;
70049;SDS011;57391;51.306;22.680;2023-09-30T11:09:00;15.10;;;10.30;;
70049;SDS011;57391;51.306;22.680;2023-09-30T11:17:03;15.00;;;9.90;;
70049;SDS011;57391;51.306;22.680;2023-09-30T11:19:50;15.10;;;9.50;;
70049;SDS011;57391;51.306;22.680;2023-09-30T11:22:19;17.30;;;10.50;;
70049;SDS011;57391;51.306;22.680;2023-09-30T11:24:46;15.00;;;9.80;;
70049;SDS011;57391;51.306;22.680;2023-09-30T11:27:22;16.60;;;9.30;;
70049;SDS011;57391;51.306;22.680;2023-09-30T11:29:53;14.00;;;9.70;;
70049;SDS011;57391;51.306;22.680;2023-09-30T11:32:28;14.20;;;8.90;;
70049;SDS011;57391;51.306;22.680;2023-09-30T11:34:55;17.20;;;9.70;;
70049;SDS011;57391;51.306;22.680;2023-09-30T11:37:23;19.60;;;9.40;;
70049;SDS011;57391;51.306;22.680;2023-09-30T11:39:50;16.90;;;10.00;;
70049;SDS011;57391;51.306;22.680;2023-09-30T11:42:17;33.80;;;15.80;;
70049;SDS011;57391;51.306;22.680;2023-09-30T11:44:47;60.00;;;28.50;;
70049;SDS011;57391;51.306;22.680;2023-09-30T11:47:14;25.80;;;14.50;;
70049;SDS011;57391;51.306;22.680;2023-09-30T11:49:52;17.30;;;9.60;;
70049;SDS011;57391;51.306;22.680;2023-09-30T11:52:26;13.40;;;8.10;;
70049;SDS011;57391;51.306;22.680;2023-09-30T11:54:54;12.60;;;7.70;;
70049;SDS011;57391;51.306;22.680;2023-09-30T11:57:22;12.10;;;8.00;;
70049;SDS011;57391;51.306;22.680;2023-09-30T11:59:49;13.00;;;8.00;;
70049;SDS011;57391;51.306;22.680;2023-09-30T12:02:17;13.20;;;8.10;;
70049;SDS011;57391;51.306;22.680;2023-09-30T12:04:46;12.70;;;7.40;;
70049;SDS011;57391;51.306;22.680;2023-09-30T12:07:15;13.80;;;7.90;;
70049;SDS011;57391;51.306;22.680;2023-09-30T12:09:42;14.50;;;7.90;;
70049;SDS011;57391;51.306;22.680;2023-09-30T12:12:09;13.70;;;8.40;;
70049;SDS011;57391;51.306;22.680;2023-09-30T12:14:37;17.00;;;8.80;;
70049;SDS011;57391;51.306;22.680;2023-09-30T12:17:04;14.10;;;9.30;;
70049;SDS011;57391;51.306;22.680;2023-09-30T12:19:31;14.60;;;9.60;;
70049;SDS011;57391;51.306;22.680;2023-09-30T12:21:58;15.50;;;8.30;;
70049;SDS011;57391;51.306;22.680;2023-09-30T12:24:25;17.80;;;8.80;;
70049;SDS011;57391;51.306;22.680;2023-09-30T12:26:53;14.90;;;8.10;;
70049;SDS011;57391;51.306;22.680;2023-09-30T12:29:22;16.60;;;9.90;;
70049;SDS011;57391;51.306;22.680;2023-09-30T12:31:51;16.20;;;10.70;;
70049;SDS011;57391;51.306;22.680;2023-09-30T12:34:18;15.90;;;10.60;;
70049;SDS011;57391;51.306;22.680;2023-09-30T12:36:45;18.10;;;11.60;;
70049;SDS011;57391;51.306;22.680;2023-09-30T12:39:13;16.60;;;10.60;;
70049;SDS011;57391;51.306;22.680;2023-09-30T12:41:43;16.90;;;11.00;;
70049;SDS011;57391;51.306;22.680;2023-09-30T12:44:11;18.70;;;12.00;;
70049;SDS011;57391;51.306;22.680;2023-09-30T12:46:38;17.90;;;13.00;;
70049;SDS011;57391;51.306;22.680;2023-09-30T12:49:06;19.70;;;12.90;;
70049;SDS011;57391;51.306;22.680;2023-09-30T12:51:34;18.50;;;12.40;;
70049;SDS011;57391;51.306;22.680;2023-09-30T12:54:02;23.00;;;14.10;;
70049;SDS011;57391;51.306;22.680;2023-09-30T12:56:29;21.00;;;13.20;;
70049;SDS011;57391;51.306;22.680;2023-09-30T12:58:57;22.40;;;14.30;;
70049;SDS011;57391;51.306;22.680;2023-09-30T13:01:24;24.30;;;15.60;;
70049;SDS011;57391;51.306;22.680;2023-09-30T13:03:51;24.20;;;15.80;;
70049;SDS011;57391;51.306;22.680;2023-09-30T13:06:19;23.90;;;15.50;;
70049;SDS011;57391;51.306;22.680;2023-09-30T13:08:46;28.10;;;17.00;;
70049;SDS011;57391;51.306;22.680;2023-09-30T13:11:14;26.40;;;17.60;;
70049;SDS011;57391;51.306;22.680;2023-09-30T13:13:41;30.00;;;20.10;;
70049;SDS011;57391;51.306;22.680;2023-09-30T13:16:10;33.60;;;22.10;;
70049;SDS011;57391;51.306;22.680;2023-09-30T13:18:38;34.10;;;21.80;;
70049;SDS011;57391;51.306;22.680;2023-09-30T13:21:05;36.50;;;22.70;;
70049;SDS011;57391;51.306;22.680;2023-09-30T13:23:32;31.40;;;21.60;;
70049;SDS011;57391;51.306;22.680;2023-09-30T13:26:00;32.50;;;21.30;;
70049;SDS011;57391;51.306;22.680;2023-09-30T13:28:28;34.20;;;22.80;;
70049;SDS011;57391;51.306;22.680;2023-09-30T13:30:55;36.10;;;22.70;;
70049;SDS011;57391;51.306;22.680;2023-09-30T13:33:23;35.50;;;22.30;;
70049;SDS011;57391;51.306;22.680;2023-09-30T13:35:50;35.50;;;21.90;;
70049;SDS011;57391;51.306;22.680;2023-09-30T13:38:17;33.00;;;21.60;;
70049;SDS011;57391;51.306;22.680;2023-09-30T13:40:45;36.60;;;21.00;;
70049;SDS011;57391;51.306;22.680;2023-09-30T13:43:12;34.00;;;20.90;;
70049;SDS011;57391;51.306;22.680;2023-09-30T13:45:40;30.50;;;20.10;;
70049;SDS011;57391;51.306;22.680;2023-09-30T13:48:07;31.00;;;20.60;;
70049;SDS011;57391;51.306;22.680;2023-09-30T13:50:34;31.70;;;20.70;;
70049;SDS011;57391;51.306;22.680;2023-09-30T13:53:01;31.60;;;20.10;;
70049;SDS011;57391;51.306;22.680;2023-09-30T13:55:29;31.70;;;20.00;;
70049;SDS011;57391;51.306;22.680;2023-09-30T13:57:55;25.90;;;18.40;;
70049;SDS011;57391;51.306;22.680;2023-09-30T14:00:22;29.50;;;18.80;;
70049;SDS011;57391;51.306;22.680;2023-09-30T14:02:50;32.40;;;18.30;;
70049;SDS011;57391;51.306;22.680;2023-09-30T14:05:17;30.20;;;17.90;;
70049;SDS011;57391;51.306;22.680;2023-09-30T14:07:46;26.10;;;17.50;;
70049;SDS011;57391;51.306;22.680;2023-09-30T14:10:14;23.00;;;16.60;;
70049;SDS011;57391;51.306;22.680;2023-09-30T14:12:41;26.00;;;16.80;;
70049;SDS011;57391;51.306;22.680;2023-09-30T14:15:09;25.40;;;16.00;;
70049;SDS011;57391;51.306;22.680;2023-09-30T14:17:36;21.00;;;14.70;;
70049;SDS011;57391;51.306;22.680;2023-09-30T14:20:04;24.60;;;15.20;;
70049;SDS011;57391;51.306;22.680;2023-09-30T14:22:32;19.10;;;12.70;;
70049;SDS011;57391;51.306;22.680;2023-09-30T14:24:58;19.60;;;11.80;;
70049;SDS011;57391;51.306;22.680;2023-09-30T14:27:25;18.60;;;11.60;;
70049;SDS011;57391;51.306;22.680;2023-09-30T14:29:53;20.60;;;11.80;;
70049;SDS011;57391;51.306;22.680;2023-09-30T14:32:20;14.50;;;9.10;;
70049;SDS011;57391;51.306;22.680;2023-09-30T14:34:47;14.00;;;7.90;;
70049;SDS011;57391;51.306;22.680;2023-09-30T14:37:14;10.60;;;6.40;;
70049;SDS011;57391;51.306;22.680;2023-09-30T14:39:41;11.80;;;6.00;;